sensor_id;sensor_type;location;lat;lon;timestamp;P1;durP1;ratioP1;P2;durP2;ratioP2
2544;SDS011;36212;48.838;9.142;2023-08-31T00:01:51;3.05;;;2.85;;
2544;SDS011;36212;48.838;9.142;2023-08-31T00:04:24;3.63;;;3.30;;
2544;SDS011;36212;48.838;9.142;2023-08-31T00:06:56;3.20;;;3.00;;
2544;SDS011;36212;48.838;9.142;2023-08-31T00:09:29;3.45;;;3.15;;
2544;SDS011;36212;48.838;9.142;2023-08-31T00:12:01;4.50;;;3.28;;
2544;SDS011;36212;48.838;9.142;2023-08-31T00:14:34;3.90;;;3.50;;
2544;SDS011;36212;48.838;9.142;2023-08-31T00:17:09;3.10;;;2.90;;
2544;SDS011;36212;48.838;9.142;2023-08-31T00:19:41;3.58;;;3.28;;
2544;SDS011;36212;48.838;9.142;2023-08-31T00:22:13;5.22;;;3.63;;
2544;SDS011;36212;48.838;9.142;2023-08-31T00:24:45;3.28;;;3.08;;
2544;SDS011;36212;48.838;9.142;2023-08-31T00:27:17;3.72;;;3.15;;
2544;SDS011;36212;48.838;9.142;2023-08-31T00:29:51;3.70;;;3.40;;
2544;SDS011;36212;48.838;9.142;2023-08-31T00:32:23;4.00;;;3.63;;
2544;SDS011;36212;48.838;9.142;2023-08-31T00:34:56;5.28;;;3.50;;
2544;SDS011;36212;48.838;9.142;2023-08-31T00:37:29;3.72;;;3.42;;
2544;SDS011;36212;48.838;9.142;2023-08-31T00:40:01;4.53;;;3.95;;
2544;SDS011;36212;48.838;9.142;2023-08-31T00:42:37;3.80;;;3.50;;
2544;SDS011;36212;48.838;9.142;2023-08-31T00:45:10;6.50;;;3.90;;
2544;SDS011;36212;48.838;9.142;2023-08-31T00:47:43;3.47;;;3.22;;
2544;SDS011;36212;48.838;9.142;2023-08-31T00:50:18;3.75;;;3.42;;
2544;SDS011;36212;48.838;9.142;2023-08-31T00:52:51;5.88;;;3.72;;
2544;SDS011;36212;48.838;9.142;2023-08-31T00:55:24;5.93;;;3.55;;
2544;SDS011;36212;48.838;9.142;2023-08-31T00:57:58;3.88;;;3.65;;
2544;SDS011;36212;48.838;9.142;2023-08-31T01:00:46;4.07;;;3.70;;
2544;SDS011;36212;48.838;9.142;2023-08-31T01:06:48;3.45;;;3.25;;
2544;SDS011;36212;48.838;9.142;2023-08-31T01:12:44;4.35;;;4.05;;
2544;SDS011;36212;48.838;9.142;2023-08-31T01:15:31;6.50;;;4.05;;
2544;SDS011;36212;48.838;9.142;2023-08-31T01:18:04;4.57;;;3.83;;
2544;SDS011;36212;48.838;9.142;2023-08-31T01:20:42;3.97;;;3.67;;
2544;SDS011;36212;48.838;9.142;2023-08-31T01:26:25;3.65;;;3.45;;
2544;SDS011;36212;48.838;9.142;2023-08-31T01:28:58;4.72;;;4.32;;
2544;SDS011;36212;48.838;9.142;2023-08-31T01:31:30;5.53;;;3.95;;
2544;SDS011;36212;48.838;9.142;2023-08-31T01:34:02;3.75;;;3.47;;
2544;SDS011;36212;48.838;9.142;2023-08-31T01:36:36;4.53;;;4.22;;
2544;SDS011;36212;48.838;9.142;2023-08-31T01:42:22;5.43;;;3.95;;
2544;SDS011;36212;48.838;9.142;2023-08-31T01:44:58;4.78;;;4.38;;
2544;SDS011;36212;48.838;9.142;2023-08-31T01:47:33;4.88;;;4.47;;
2544;SDS011;36212;48.838;9.142;2023-08-31T01:50:06;7.22;;;4.80;;
2544;SDS011;36212;48.838;9.142;2023-08-31T01:52:39;4.93;;;4.63;;
2544;SDS011;36212;48.838;9.142;2023-08-31T01:55:11;5.30;;;4.90;;
2544;SDS011;36212;48.838;9.142;2023-08-31T01:57:47;5.60;;;5.10;;
2544;SDS011;36212;48.838;9.142;2023-08-31T02:00:20;4.97;;;4.60;;
2544;SDS011;36212;48.838;9.142;2023-08-31T02:02:52;5.00;;;4.60;;
2544;SDS011;36212;48.838;9.142;2023-08-31T02:05:24;4.22;;;3.92;;
2544;SDS011;36212;48.838;9.142;2023-08-31T02:07:56;5.90;;;4.50;;
2544;SDS011;36212;48.838;9.142;2023-08-31T02:10:28;4.65;;;4.25;;
2544;SDS011;36212;48.838;9.142;2023-08-31T02:13:01;5.10;;;4.70;;
2544;SDS011;36212;48.838;9.142;2023-08-31T02:15:33;4.22;;;4.03;;
2544;SDS011;36212;48.838;9.142;2023-08-31T02:18:08;4.78;;;4.47;;
2544;SDS011;36212;48.838;9.142;2023-08-31T02:20:40;5.28;;;4.78;;
2544;SDS011;36212;48.838;9.142;2023-08-31T02:23:12;5.75;;;4.35;;
2544;SDS011;36212;48.838;9.142;2023-08-31T02:25:45;4.50;;;4.18;;
2544;SDS011;36212;48.838;9.142;2023-08-31T02:28:17;4.40;;;4.10;;
2544;SDS011;36212;48.838;9.142;2023-08-31T02:30:58;4.30;;;4.07;;
2544;SDS011;36212;48.838;9.142;2023-08-31T02:33:32;4.65;;;4.35;;
2544;SDS011;36212;48.838;9.142;2023-08-31T02:36:04;4.88;;;3.90;;
2544;SDS011;36212;48.838;9.142;2023-08-31T02:38:36;5.63;;;5.15;;
2544;SDS011;36212;48.838;9.142;2023-08-31T02:41:09;4.28;;;3.95;;
2544;SDS011;36212;48.838;9.142;2023-08-31T02:43:41;4.78;;;4.22;;
2544;SDS011;36212;48.838;9.142;2023-08-31T02:46:13;4.00;;;3.55;;
2544;SDS011;36212;48.838;9.142;2023-08-31T02:48:45;9.30;;;4.28;;
2544;SDS011;36212;48.838;9.142;2023-08-31T02:51:18;5.55;;;3.88;;
2544;SDS011;36212;48.838;9.142;2023-08-31T02:53:50;3.78;;;3.47;;
2544;SDS011;36212;48.838;9.142;2023-08-31T02:56:25;5.07;;;3.40;;
2544;SDS011;36212;48.838;9.142;2023-08-31T02:58:57;3.67;;;3.33;;
2544;SDS011;36212;48.838;9.142;2023-08-31T03:01:29;3.50;;;3.30;;
2544;SDS011;36212;48.838;9.142;2023-08-31T03:04:01;4.25;;;3.05;;
2544;SDS011;36212;48.838;9.142;2023-08-31T03:06:33;4.50;;;4.10;;
2544;SDS011;36212;48.838;9.142;2023-08-31T03:09:05;4.07;;;3.78;;
2544;SDS011;36212;48.838;9.142;2023-08-31T03:11:38;3.55;;;3.35;;
2544;SDS011;36212;48.838;9.142;2023-08-31T03:14:10;3.45;;;3.25;;
2544;SDS011;36212;48.838;9.142;2023-08-31T03:16:42;3.97;;;3.67;;
2544;SDS011;36212;48.838;9.142;2023-08-31T03:19:15;3.53;;;3.25;;
2544;SDS011;36212;48.838;9.142;2023-08-31T03:21:47;3.33;;;3.13;;
2544;SDS011;36212;48.838;9.142;2023-08-31T03:24:19;3.90;;;3.63;;
2544;SDS011;36212;48.838;9.142;2023-08-31T03:26:53;3.60;;;3.30;;
2544;SDS011;36212;48.838;9.142;2023-08-31T03:29:25;3.78;;;3.47;;
2544;SDS011;36212;48.838;9.142;2023-08-31T03:31:59;3.85;;;3.65;;
2544;SDS011;36212;48.838;9.142;2023-08-31T03:34:32;3.72;;;3.47;;
2544;SDS011;36212;48.838;9.142;2023-08-31T03:37:04;3.97;;;3.67;;
2544;SDS011;36212;48.838;9.142;2023-08-31T03:39:36;3.38;;;3.08;;
2544;SDS011;36212;48.838;9.142;2023-08-31T03:42:11;3.65;;;3.35;;
2544;SDS011;36212;48.838;9.142;2023-08-31T03:44:43;3.38;;;3.17;;
2544;SDS011;36212;48.838;9.142;2023-08-31T03:47:15;3.65;;;3.40;;
2544;SDS011;36212;48.838;9.142;2023-08-31T03:49:47;6.47;;;3.50;;
2544;SDS011;36212;48.838;9.142;2023-08-31T03:52:19;3.05;;;2.95;;
2544;SDS011;36212;48.838;9.142;2023-08-31T03:54:53;3.67;;;3.45;;
2544;SDS011;36212;48.838;9.142;2023-08-31T03:57:25;3.83;;;3.53;;
2544;SDS011;36212;48.838;9.142;2023-08-31T03:59:57;5.70;;;3.55;;
2544;SDS011;36212;48.838;9.142;2023-08-31T04:02:29;5.43;;;3.80;;
2544;SDS011;36212;48.838;9.142;2023-08-31T04:05:03;3.70;;;3.30;;
2544;SDS011;36212;48.838;9.142;2023-08-31T04:07:38;4.38;;;3.30;;
2544;SDS011;36212;48.838;9.142;2023-08-31T04:10:11;4.10;;;3.67;;
2544;SDS011;36212;48.838;9.142;2023-08-31T04:12:43;6.07;;;3.90;;
2544;SDS011;36212;48.838;9.142;2023-08-31T04:15:15;3.40;;;3.20;;
2544;SDS011;36212;48.838;9.142;2023-08-31T04:17:47;3.53;;;3.30;;
2544;SDS011;36212;48.838;9.142;2023-08-31T04:20:21;4.22;;;3.92;;
2544;SDS011;36212;48.838;9.142;2023-08-31T04:22:54;4.10;;;3.80;;
2544;SDS011;36212;48.838;9.142;2023-08-31T04:25:28;4.75;;;3.88;;
2544;SDS011;36212;48.838;9.142;2023-08-31T04:28:03;4.03;;;3.72;;
2544;SDS011;36212;48.838;9.142;2023-08-31T04:30:35;4.40;;;4.10;;
2544;SDS011;36212;48.838;9.142;2023-08-31T04:33:09;4.35;;;4.05;;
2544;SDS011;36212;48.838;9.142;2023-08-31T04:35:42;4.03;;;3.83;;
2544;SDS011;36212;48.838;9.142;2023-08-31T04:38:14;4.38;;;3.97;;
2544;SDS011;36212;48.838;9.142;2023-08-31T04:40:46;4.20;;;3.90;;
2544;SDS011;36212;48.838;9.142;2023-08-31T04:43:18;4.57;;;4.20;;
2544;SDS011;36212;48.838;9.142;2023-08-31T04:45:51;4.15;;;3.85;;
2544;SDS011;36212;48.838;9.142;2023-08-31T04:48:24;5.22;;;4.07;;
2544;SDS011;36212;48.838;9.142;2023-08-31T04:50:56;7.60;;;4.10;;
2544;SDS011;36212;48.838;9.142;2023-08-31T04:53:29;4.38;;;3.97;;
2544;SDS011;36212;48.838;9.142;2023-08-31T04:56:01;4.40;;;4.10;;
2544;SDS011;36212;48.838;9.142;2023-08-31T04:58:34;4.60;;;4.30;;
2544;SDS011;36212;48.838;9.142;2023-08-31T05:01:06;4.18;;;3.78;;
2544;SDS011;36212;48.838;9.142;2023-08-31T05:03:39;4.15;;;3.85;;
2544;SDS011;36212;48.838;9.142;2023-08-31T05:06:12;3.78;;;3.58;;
2544;SDS011;36212;48.838;9.142;2023-08-31T05:08:44;4.82;;;3.42;;
2544;SDS011;36212;48.838;9.142;2023-08-31T05:11:19;4.65;;;4.22;;
2544;SDS011;36212;48.838;9.142;2023-08-31T05:13:51;4.18;;;3.88;;
2544;SDS011;36212;48.838;9.142;2023-08-31T05:16:23;4.25;;;3.95;;
2544;SDS011;36212;48.838;9.142;2023-08-31T05:18:55;3.95;;;3.72;;
2544;SDS011;36212;48.838;9.142;2023-08-31T05:21:27;4.65;;;3.80;;
2544;SDS011;36212;48.838;9.142;2023-08-31T05:23:59;4.10;;;3.90;;
2544;SDS011;36212;48.838;9.142;2023-08-31T05:26:31;6.72;;;5.22;;
2544;SDS011;36212;48.838;9.142;2023-08-31T05:29:03;5.00;;;4.60;;
2544;SDS011;36212;48.838;9.142;2023-08-31T05:31:35;4.60;;;3.85;;
2544;SDS011;36212;48.838;9.142;2023-08-31T05:34:15;4.30;;;4.03;;
2544;SDS011;36212;48.838;9.142;2023-08-31T05:36:51;4.20;;;4.00;;
2544;SDS011;36212;48.838;9.142;2023-08-31T05:39:23;6.75;;;4.70;;
2544;SDS011;36212;48.838;9.142;2023-08-31T05:41:55;4.45;;;4.15;;
2544;SDS011;36212;48.838;9.142;2023-08-31T05:44:28;4.38;;;4.00;;
2544;SDS011;36212;48.838;9.142;2023-08-31T05:47:00;4.25;;;3.83;;
2544;SDS011;36212;48.838;9.142;2023-08-31T05:49:33;4.65;;;4.28;;
2544;SDS011;36212;48.838;9.142;2023-08-31T05:52:06;3.80;;;3.53;;
2544;SDS011;36212;48.838;9.142;2023-08-31T05:54:38;3.70;;;3.50;;
2544;SDS011;36212;48.838;9.142;2023-08-31T05:57:10;4.30;;;4.00;;
2544;SDS011;36212;48.838;9.142;2023-08-31T05:59:43;4.53;;;3.78;;
2544;SDS011;36212;48.838;9.142;2023-08-31T06:02:15;5.20;;;3.78;;
2544;SDS011;36212;48.838;9.142;2023-08-31T06:04:47;4.28;;;3.97;;
2544;SDS011;36212;48.838;9.142;2023-08-31T06:07:19;4.90;;;4.50;;
2544;SDS011;36212;48.838;9.142;2023-08-31T06:09:51;4.18;;;3.88;;
2544;SDS011;36212;48.838;9.142;2023-08-31T06:12:23;5.18;;;4.65;;
2544;SDS011;36212;48.838;9.142;2023-08-31T06:14:56;4.88;;;4.45;;
2544;SDS011;36212;48.838;9.142;2023-08-31T06:17:28;4.78;;;4.28;;
2544;SDS011;36212;48.838;9.142;2023-08-31T06:20:01;4.82;;;4.10;;
2544;SDS011;36212;48.838;9.142;2023-08-31T06:22:35;4.72;;;3.90;;
2544;SDS011;36212;48.838;9.142;2023-08-31T06:25:08;4.22;;;3.47;;
2544;SDS011;36212;48.838;9.142;2023-08-31T06:27:45;3.83;;;3.50;;
2544;SDS011;36212;48.838;9.142;2023-08-31T06:30:17;3.83;;;3.53;;
2544;SDS011;36212;48.838;9.142;2023-08-31T06:32:50;3.50;;;2.80;;
2544;SDS011;36212;48.838;9.142;2023-08-31T06:35:22;3.95;;;2.92;;
2544;SDS011;36212;48.838;9.142;2023-08-31T06:37:55;3.10;;;2.77;;
2544;SDS011;36212;48.838;9.142;2023-08-31T06:40:27;3.30;;;2.60;;
2544;SDS011;36212;48.838;9.142;2023-08-31T06:43:00;2.60;;;2.40;;
2544;SDS011;36212;48.838;9.142;2023-08-31T06:45:33;3.93;;;2.60;;
2544;SDS011;36212;48.838;9.142;2023-08-31T06:48:06;2.77;;;2.57;;
2544;SDS011;36212;48.838;9.142;2023-08-31T06:50:38;3.20;;;2.50;;
2544;SDS011;36212;48.838;9.142;2023-08-31T06:53:10;3.57;;;3.17;;
2544;SDS011;36212;48.838;9.142;2023-08-31T06:55:43;3.50;;;2.70;;
2544;SDS011;36212;48.838;9.142;2023-08-31T06:58:16;3.47;;;2.60;;
2544;SDS011;36212;48.838;9.142;2023-08-31T07:00:48;4.33;;;2.83;;
2544;SDS011;36212;48.838;9.142;2023-08-31T07:03:20;4.43;;;3.13;;
2544;SDS011;36212;48.838;9.142;2023-08-31T07:05:55;7.53;;;3.20;;
2544;SDS011;36212;48.838;9.142;2023-08-31T07:08:27;2.77;;;2.50;;
2544;SDS011;36212;48.838;9.142;2023-08-31T07:11:00;3.23;;;2.93;;
2544;SDS011;36212;48.838;9.142;2023-08-31T07:13:33;6.85;;;2.80;;
2544;SDS011;36212;48.838;9.142;2023-08-31T07:16:05;3.72;;;2.80;;
2544;SDS011;36212;48.838;9.142;2023-08-31T07:18:38;3.92;;;3.22;;
2544;SDS011;36212;48.838;9.142;2023-08-31T07:21:10;4.72;;;2.70;;
2544;SDS011;36212;48.838;9.142;2023-08-31T07:23:44;2.80;;;2.60;;
2544;SDS011;36212;48.838;9.142;2023-08-31T07:26:16;2.20;;;2.00;;
2544;SDS011;36212;48.838;9.142;2023-08-31T07:28:49;4.90;;;2.80;;
2544;SDS011;36212;48.838;9.142;2023-08-31T07:31:21;2.63;;;2.43;;
2544;SDS011;36212;48.838;9.142;2023-08-31T07:33:54;2.90;;;2.00;;
2544;SDS011;36212;48.838;9.142;2023-08-31T07:36:26;3.30;;;2.70;;
2544;SDS011;36212;48.838;9.142;2023-08-31T07:38:59;2.53;;;2.03;;
2544;SDS011;36212;48.838;9.142;2023-08-31T07:41:31;2.63;;;2.20;;
2544;SDS011;36212;48.838;9.142;2023-08-31T07:44:03;4.40;;;2.30;;
2544;SDS011;36212;48.838;9.142;2023-08-31T07:46:36;3.23;;;2.37;;
2544;SDS011;36212;48.838;9.142;2023-08-31T07:49:08;2.70;;;2.50;;
2544;SDS011;36212;48.838;9.142;2023-08-31T07:51:41;5.60;;;2.40;;
2544;SDS011;36212;48.838;9.142;2023-08-31T07:54:23;3.40;;;2.10;;
2544;SDS011;36212;48.838;9.142;2023-08-31T07:56:56;2.90;;;2.60;;
2544;SDS011;36212;48.838;9.142;2023-08-31T07:59:28;2.37;;;2.10;;
2544;SDS011;36212;48.838;9.142;2023-08-31T08:02:00;2.30;;;2.10;;
2544;SDS011;36212;48.838;9.142;2023-08-31T08:04:32;2.20;;;2.03;;
2544;SDS011;36212;48.838;9.142;2023-08-31T08:07:05;2.33;;;2.13;;
2544;SDS011;36212;48.838;9.142;2023-08-31T08:09:38;2.80;;;2.50;;
2544;SDS011;36212;48.838;9.142;2023-08-31T08:12:11;3.60;;;2.50;;
2544;SDS011;36212;48.838;9.142;2023-08-31T08:14:43;2.80;;;2.20;;
2544;SDS011;36212;48.838;9.142;2023-08-31T08:17:15;3.50;;;2.30;;
2544;SDS011;36212;48.838;9.142;2023-08-31T08:19:47;2.37;;;2.17;;
2544;SDS011;36212;48.838;9.142;2023-08-31T08:22:19;3.30;;;2.70;;
2544;SDS011;36212;48.838;9.142;2023-08-31T08:24:51;3.70;;;2.40;;
2544;SDS011;36212;48.838;9.142;2023-08-31T08:27:24;3.53;;;2.53;;
2544;SDS011;36212;48.838;9.142;2023-08-31T08:29:57;2.70;;;2.50;;
2544;SDS011;36212;48.838;9.142;2023-08-31T08:32:29;3.17;;;2.53;;
2544;SDS011;36212;48.838;9.142;2023-08-31T08:35:03;2.87;;;2.27;;
2544;SDS011;36212;48.838;9.142;2023-08-31T08:37:36;2.40;;;2.20;;
2544;SDS011;36212;48.838;9.142;2023-08-31T08:40:09;3.50;;;2.30;;
2544;SDS011;36212;48.838;9.142;2023-08-31T08:42:42;3.73;;;2.90;;
2544;SDS011;36212;48.838;9.142;2023-08-31T08:45:17;4.00;;;2.63;;
2544;SDS011;36212;48.838;9.142;2023-08-31T08:47:54;3.77;;;2.37;;
2544;SDS011;36212;48.838;9.142;2023-08-31T08:50:27;2.50;;;2.30;;
2544;SDS011;36212;48.838;9.142;2023-08-31T08:53:03;3.40;;;2.83;;
2544;SDS011;36212;48.838;9.142;2023-08-31T08:55:36;2.40;;;2.20;;
2544;SDS011;36212;48.838;9.142;2023-08-31T08:58:10;2.70;;;2.07;;
2544;SDS011;36212;48.838;9.142;2023-08-31T09:00:43;4.77;;;2.60;;
2544;SDS011;36212;48.838;9.142;2023-08-31T09:03:16;2.40;;;2.23;;
2544;SDS011;36212;48.838;9.142;2023-08-31T09:05:49;3.17;;;2.43;;
2544;SDS011;36212;48.838;9.142;2023-08-31T09:08:26;2.23;;;2.13;;
2544;SDS011;36212;48.838;9.142;2023-08-31T09:10:59;3.10;;;2.80;;
2544;SDS011;36212;48.838;9.142;2023-08-31T09:13:32;3.13;;;2.00;;
2544;SDS011;36212;48.838;9.142;2023-08-31T09:16:05;3.17;;;2.80;;
2544;SDS011;36212;48.838;9.142;2023-08-31T09:18:53;2.67;;;2.47;;
2544;SDS011;36212;48.838;9.142;2023-08-31T09:21:36;2.40;;;2.20;;
2544;SDS011;36212;48.838;9.142;2023-08-31T09:24:11;4.90;;;2.40;;
2544;SDS011;36212;48.838;9.142;2023-08-31T09:26:48;2.60;;;2.40;;
2544;SDS011;36212;48.838;9.142;2023-08-31T09:29:27;2.47;;;2.27;;
2544;SDS011;36212;48.838;9.142;2023-08-31T09:31:59;2.57;;;2.20;;
2544;SDS011;36212;48.838;9.142;2023-08-31T09:34:33;3.30;;;2.47;;
2544;SDS011;36212;48.838;9.142;2023-08-31T09:37:07;2.83;;;2.60;;
2544;SDS011;36212;48.838;9.142;2023-08-31T09:39:45;2.80;;;2.13;;
2544;SDS011;36212;48.838;9.142;2023-08-31T09:42:20;3.93;;;3.53;;
2544;SDS011;36212;48.838;9.142;2023-08-31T09:48:09;3.10;;;2.57;;
2544;SDS011;36212;48.838;9.142;2023-08-31T09:50:45;2.30;;;2.10;;
2544;SDS011;36212;48.838;9.142;2023-08-31T09:53:31;2.40;;;2.20;;
2544;SDS011;36212;48.838;9.142;2023-08-31T09:56:12;2.60;;;2.40;;
2544;SDS011;36212;48.838;9.142;2023-08-31T09:58:50;2.13;;;2.03;;
2544;SDS011;36212;48.838;9.142;2023-08-31T10:01:24;2.30;;;2.20;;
2544;SDS011;36212;48.838;9.142;2023-08-31T10:04:00;2.70;;;2.20;;
2544;SDS011;36212;48.838;9.142;2023-08-31T10:06:38;2.90;;;2.20;;
2544;SDS011;36212;48.838;9.142;2023-08-31T10:09:12;2.30;;;2.07;;
2544;SDS011;36212;48.838;9.142;2023-08-31T10:11:46;2.50;;;2.30;;
2544;SDS011;36212;48.838;9.142;2023-08-31T10:14:19;3.20;;;2.30;;
2544;SDS011;36212;48.838;9.142;2023-08-31T10:16:53;2.43;;;2.23;;
2544;SDS011;36212;48.838;9.142;2023-08-31T10:19:27;2.07;;;1.87;;
2544;SDS011;36212;48.838;9.142;2023-08-31T10:22:00;2.47;;;2.27;;
2544;SDS011;36212;48.838;9.142;2023-08-31T10:24:56;5.37;;;2.83;;
2544;SDS011;36212;48.838;9.142;2023-08-31T10:27:47;3.93;;;2.40;;
2544;SDS011;36212;48.838;9.142;2023-08-31T10:31:04;3.03;;;2.20;;
2544;SDS011;36212;48.838;9.142;2023-08-31T10:33:41;2.63;;;2.20;;
2544;SDS011;36212;48.838;9.142;2023-08-31T10:36:47;3.60;;;2.30;;
2544;SDS011;36212;48.838;9.142;2023-08-31T10:39:50;3.50;;;2.50;;
2544;SDS011;36212;48.838;9.142;2023-08-31T10:42:44;3.60;;;2.60;;
2544;SDS011;36212;48.838;9.142;2023-08-31T10:45:44;3.10;;;2.30;;
2544;SDS011;36212;48.838;9.142;2023-08-31T10:48:17;5.97;;;2.90;;
2544;SDS011;36212;48.838;9.142;2023-08-31T10:50:49;2.63;;;2.43;;
2544;SDS011;36212;48.838;9.142;2023-08-31T10:53:28;2.77;;;2.47;;
2544;SDS011;36212;48.838;9.142;2023-08-31T10:56:00;3.97;;;2.70;;
2544;SDS011;36212;48.838;9.142;2023-08-31T10:58:33;3.20;;;2.40;;
2544;SDS011;36212;48.838;9.142;2023-08-31T11:01:05;3.03;;;2.43;;
2544;SDS011;36212;48.838;9.142;2023-08-31T11:06:29;3.03;;;2.37;;
2544;SDS011;36212;48.838;9.142;2023-08-31T11:09:03;3.00;;;2.60;;
2544;SDS011;36212;48.838;9.142;2023-08-31T11:11:40;3.33;;;2.30;;
2544;SDS011;36212;48.838;9.142;2023-08-31T11:14:12;5.27;;;2.30;;
2544;SDS011;36212;48.838;9.142;2023-08-31T11:16:46;3.03;;;2.77;;
2544;SDS011;36212;48.838;9.142;2023-08-31T11:19:18;4.10;;;2.33;;
2544;SDS011;36212;48.838;9.142;2023-08-31T11:21:50;2.70;;;2.50;;
2544;SDS011;36212;48.838;9.142;2023-08-31T11:24:24;3.97;;;2.43;;
2544;SDS011;36212;48.838;9.142;2023-08-31T11:26:56;5.20;;;2.70;;
2544;SDS011;36212;48.838;9.142;2023-08-31T11:29:29;3.60;;;2.37;;
2544;SDS011;36212;48.838;9.142;2023-08-31T11:32:01;2.50;;;2.30;;
2544;SDS011;36212;48.838;9.142;2023-08-31T11:34:34;5.20;;;2.70;;
2544;SDS011;36212;48.838;9.142;2023-08-31T11:37:12;4.30;;;2.20;;
2544;SDS011;36212;48.838;9.142;2023-08-31T11:39:51;4.00;;;2.70;;
2544;SDS011;36212;48.838;9.142;2023-08-31T11:42:24;3.67;;;2.40;;
2544;SDS011;36212;48.838;9.142;2023-08-31T11:44:56;3.37;;;2.70;;
2544;SDS011;36212;48.838;9.142;2023-08-31T11:47:29;2.30;;;2.10;;
2544;SDS011;36212;48.838;9.142;2023-08-31T11:50:02;4.43;;;2.90;;
2544;SDS011;36212;48.838;9.142;2023-08-31T11:52:37;4.33;;;2.33;;
2544;SDS011;36212;48.838;9.142;2023-08-31T11:55:10;3.20;;;2.50;;
2544;SDS011;36212;48.838;9.142;2023-08-31T11:57:52;6.77;;;2.47;;
2544;SDS011;36212;48.838;9.142;2023-08-31T12:00:26;3.53;;;2.40;;
2544;SDS011;36212;48.838;9.142;2023-08-31T12:02:59;2.50;;;2.30;;
2544;SDS011;36212;48.838;9.142;2023-08-31T12:05:44;3.90;;;2.57;;
2544;SDS011;36212;48.838;9.142;2023-08-31T12:08:25;2.47;;;2.23;;
2544;SDS011;36212;48.838;9.142;2023-08-31T12:10:59;4.07;;;3.33;;
2544;SDS011;36212;48.838;9.142;2023-08-31T12:13:32;3.67;;;2.47;;
2544;SDS011;36212;48.838;9.142;2023-08-31T12:16:11;3.43;;;2.70;;
2544;SDS011;36212;48.838;9.142;2023-08-31T12:18:44;2.53;;;2.20;;
2544;SDS011;36212;48.838;9.142;2023-08-31T12:21:19;3.83;;;2.50;;
2544;SDS011;36212;48.838;9.142;2023-08-31T12:23:52;6.03;;;2.53;;
2544;SDS011;36212;48.838;9.142;2023-08-31T12:26:24;4.77;;;2.63;;
2544;SDS011;36212;48.838;9.142;2023-08-31T12:28:57;3.10;;;2.60;;
2544;SDS011;36212;48.838;9.142;2023-08-31T12:31:30;3.70;;;2.20;;
2544;SDS011;36212;48.838;9.142;2023-08-31T12:34:03;3.07;;;2.03;;
2544;SDS011;36212;48.838;9.142;2023-08-31T12:36:37;2.53;;;2.33;;
2544;SDS011;36212;48.838;9.142;2023-08-31T12:39:12;3.80;;;2.80;;
2544;SDS011;36212;48.838;9.142;2023-08-31T12:41:44;2.57;;;2.37;;
2544;SDS011;36212;48.838;9.142;2023-08-31T12:44:17;3.57;;;2.43;;
2544;SDS011;36212;48.838;9.142;2023-08-31T12:46:49;5.40;;;3.00;;
2544;SDS011;36212;48.838;9.142;2023-08-31T12:49:22;3.57;;;2.67;;
2544;SDS011;36212;48.838;9.142;2023-08-31T12:51:54;3.47;;;2.43;;
2544;SDS011;36212;48.838;9.142;2023-08-31T12:54:26;4.70;;;2.30;;
2544;SDS011;36212;48.838;9.142;2023-08-31T12:56:59;2.73;;;2.20;;
2544;SDS011;36212;48.838;9.142;2023-08-31T12:59:31;4.13;;;2.63;;
2544;SDS011;36212;48.838;9.142;2023-08-31T13:02:03;2.20;;;1.93;;
2544;SDS011;36212;48.838;9.142;2023-08-31T13:04:42;3.20;;;2.93;;
2544;SDS011;36212;48.838;9.142;2023-08-31T13:07:14;2.40;;;2.20;;
2544;SDS011;36212;48.838;9.142;2023-08-31T13:09:46;2.23;;;2.03;;
2544;SDS011;36212;48.838;9.142;2023-08-31T13:12:19;4.97;;;2.30;;
2544;SDS011;36212;48.838;9.142;2023-08-31T13:14:51;3.83;;;3.10;;
2544;SDS011;36212;48.838;9.142;2023-08-31T13:17:23;3.67;;;2.40;;
2544;SDS011;36212;48.838;9.142;2023-08-31T13:19:58;3.10;;;2.63;;
2544;SDS011;36212;48.838;9.142;2023-08-31T13:22:30;2.70;;;2.50;;
2544;SDS011;36212;48.838;9.142;2023-08-31T13:25:03;2.80;;;2.23;;
2544;SDS011;36212;48.838;9.142;2023-08-31T13:27:36;2.30;;;2.10;;
2544;SDS011;36212;48.838;9.142;2023-08-31T13:30:09;2.70;;;2.50;;
2544;SDS011;36212;48.838;9.142;2023-08-31T13:32:43;3.77;;;2.40;;
2544;SDS011;36212;48.838;9.142;2023-08-31T13:35:16;2.17;;;2.03;;
2544;SDS011;36212;48.838;9.142;2023-08-31T13:37:48;2.73;;;2.53;;
2544;SDS011;36212;48.838;9.142;2023-08-31T13:40:20;2.50;;;2.30;;
2544;SDS011;36212;48.838;9.142;2023-08-31T13:42:57;2.50;;;2.20;;
2544;SDS011;36212;48.838;9.142;2023-08-31T13:45:34;2.47;;;2.23;;
2544;SDS011;36212;48.838;9.142;2023-08-31T13:48:07;3.40;;;2.00;;
2544;SDS011;36212;48.838;9.142;2023-08-31T13:50:40;2.50;;;2.13;;
2544;SDS011;36212;48.838;9.142;2023-08-31T13:53:12;3.53;;;2.53;;
2544;SDS011;36212;48.838;9.142;2023-08-31T13:55:44;3.00;;;2.07;;
2544;SDS011;36212;48.838;9.142;2023-08-31T13:58:17;3.67;;;2.23;;
2544;SDS011;36212;48.838;9.142;2023-08-31T14:00:49;4.23;;;2.73;;
2544;SDS011;36212;48.838;9.142;2023-08-31T14:03:21;5.50;;;2.80;;
2544;SDS011;36212;48.838;9.142;2023-08-31T14:05:55;4.60;;;3.00;;
2544;SDS011;36212;48.838;9.142;2023-08-31T14:08:27;3.20;;;2.13;;
2544;SDS011;36212;48.838;9.142;2023-08-31T14:10:59;3.90;;;2.50;;
2544;SDS011;36212;48.838;9.142;2023-08-31T14:13:33;2.33;;;2.13;;
2544;SDS011;36212;48.838;9.142;2023-08-31T14:16:06;4.33;;;2.53;;
2544;SDS011;36212;48.838;9.142;2023-08-31T14:18:38;2.37;;;2.17;;
2544;SDS011;36212;48.838;9.142;2023-08-31T14:21:15;2.37;;;2.20;;
2544;SDS011;36212;48.838;9.142;2023-08-31T14:23:48;3.27;;;2.73;;
2544;SDS011;36212;48.838;9.142;2023-08-31T14:26:25;4.80;;;2.33;;
2544;SDS011;36212;48.838;9.142;2023-08-31T14:28:57;4.97;;;3.03;;
2544;SDS011;36212;48.838;9.142;2023-08-31T14:31:30;2.83;;;2.50;;
2544;SDS011;36212;48.838;9.142;2023-08-31T14:34:02;2.50;;;2.00;;
2544;SDS011;36212;48.838;9.142;2023-08-31T14:36:34;2.63;;;2.30;;
2544;SDS011;36212;48.838;9.142;2023-08-31T14:39:07;3.53;;;2.40;;
2544;SDS011;36212;48.838;9.142;2023-08-31T14:41:39;2.83;;;2.37;;
2544;SDS011;36212;48.838;9.142;2023-08-31T14:44:11;3.40;;;2.83;;
2544;SDS011;36212;48.838;9.142;2023-08-31T14:46:44;5.90;;;2.90;;
2544;SDS011;36212;48.838;9.142;2023-08-31T14:49:16;4.30;;;2.90;;
2544;SDS011;36212;48.838;9.142;2023-08-31T14:51:52;3.90;;;2.93;;
2544;SDS011;36212;48.838;9.142;2023-08-31T14:54:25;4.80;;;2.50;;
2544;SDS011;36212;48.838;9.142;2023-08-31T14:56:59;3.23;;;2.37;;
2544;SDS011;36212;48.838;9.142;2023-08-31T14:59:34;2.67;;;2.47;;
2544;SDS011;36212;48.838;9.142;2023-08-31T15:02:06;3.40;;;2.63;;
2544;SDS011;36212;48.838;9.142;2023-08-31T15:04:38;3.20;;;2.47;;
2544;SDS011;36212;48.838;9.142;2023-08-31T15:07:10;3.03;;;2.50;;
2544;SDS011;36212;48.838;9.142;2023-08-31T15:09:43;6.00;;;2.60;;
2544;SDS011;36212;48.838;9.142;2023-08-31T15:12:16;4.63;;;2.60;;
2544;SDS011;36212;48.838;9.142;2023-08-31T15:14:48;3.23;;;3.00;;
2544;SDS011;36212;48.838;9.142;2023-08-31T15:17:20;3.40;;;2.63;;
2544;SDS011;36212;48.838;9.142;2023-08-31T15:19:52;2.90;;;2.70;;
2544;SDS011;36212;48.838;9.142;2023-08-31T15:22:24;4.00;;;3.03;;
2544;SDS011;36212;48.838;9.142;2023-08-31T15:24:56;3.23;;;2.60;;
2544;SDS011;36212;48.838;9.142;2023-08-31T15:27:29;4.20;;;3.17;;
2544;SDS011;36212;48.838;9.142;2023-08-31T15:30:01;3.97;;;2.47;;
2544;SDS011;36212;48.838;9.142;2023-08-31T15:32:38;3.50;;;3.10;;
2544;SDS011;36212;48.838;9.142;2023-08-31T15:35:10;4.93;;;2.70;;
2544;SDS011;36212;48.838;9.142;2023-08-31T15:37:44;4.20;;;2.57;;
2544;SDS011;36212;48.838;9.142;2023-08-31T15:40:21;4.43;;;2.50;;
2544;SDS011;36212;48.838;9.142;2023-08-31T15:42:53;3.30;;;2.97;;
2544;SDS011;36212;48.838;9.142;2023-08-31T15:45:25;4.03;;;2.77;;
2544;SDS011;36212;48.838;9.142;2023-08-31T15:47:57;3.43;;;2.73;;
2544;SDS011;36212;48.838;9.142;2023-08-31T15:50:29;2.70;;;2.33;;
2544;SDS011;36212;48.838;9.142;2023-08-31T15:53:03;3.00;;;2.70;;
2544;SDS011;36212;48.838;9.142;2023-08-31T15:55:35;5.07;;;2.97;;
2544;SDS011;36212;48.838;9.142;2023-08-31T15:58:09;5.53;;;3.30;;
2544;SDS011;36212;48.838;9.142;2023-08-31T16:00:41;2.83;;;2.50;;